createdAt,value
2023-09-20T00:01:42.159Z,74.70
2023-09-20T00:04:08.949Z,74.40
2023-09-20T00:06:35.695Z,74.00
2023-09-20T00:09:03.665Z,74.00
2023-09-20T00:11:30.451Z,73.80
2023-09-20T00:13:59.199Z,74.00
2023-09-20T00:16:26.830Z,74.40
2023-09-20T00:18:53.529Z,74.30
2023-09-20T00:21:20.227Z,74.90
2023-09-20T00:23:46.976Z,74.70
2023-09-20T00:26:14.799Z,74.50
2023-09-20T00:28:49.870Z,74.20
2023-09-20T00:31:17.263Z,74.70
2023-09-20T00:33:44.899Z,74.90
2023-09-20T00:36:21.706Z,74.50
2023-09-20T00:38:48.985Z,74.20
2023-09-20T00:41:16.422Z,74.30
2023-09-20T00:43:43.225Z,74.20
2023-09-20T00:46:10.680Z,73.50
2023-09-20T00:48:40.122Z,73.20
2023-09-20T00:51:07.613Z,71.90
2023-09-20T00:53:36.523Z,73.10
2023-09-20T00:56:05.431Z,73.80
2023-09-20T00:58:35.581Z,73.70
2023-09-20T01:01:05.102Z,74.80
2023-09-20T01:03:36.801Z,75.00
2023-09-20T01:06:09.869Z,75.30
2023-09-20T01:08:36.688Z,75.20
2023-09-20T01:11:04.099Z,75.10
2023-09-20T01:13:30.917Z,74.60
2023-09-20T01:15:57.904Z,74.10
2023-09-20T01:18:24.713Z,74.50
2023-09-20T01:20:51.477Z,74.10
2023-09-20T01:23:18.835Z,72.60
2023-09-20T01:25:46.101Z,72.20
2023-09-20T01:28:13.977Z,72.30
2023-09-20T01:30:42.891Z,73.30
2023-09-20T01:33:10.638Z,74.30
2023-09-20T01:35:38.384Z,74.60
2023-09-20T01:38:07.364Z,75.30
2023-09-20T01:40:35.488Z,75.10
2023-09-20T01:43:05.211Z,74.40
2023-09-20T01:45:33.493Z,74.60
2023-09-20T01:48:06.597Z,74.40
2023-09-20T01:50:34.438Z,74.70
2023-09-20T01:53:06.279Z,74.20
2023-09-20T01:55:33.142Z,74.80
2023-09-20T01:58:14.122Z,74.80
2023-09-20T02:00:42.267Z,75.50
2023-09-20T02:03:21.299Z,75.30
2023-09-20T02:05:49.380Z,75.30
2023-09-20T02:08:17.649Z,75.80
2023-09-20T02:10:46.252Z,75.40
2023-09-20T02:13:14.587Z,75.10
2023-09-20T02:15:42.700Z,75.10
2023-09-20T02:18:10.638Z,74.50
2023-09-20T02:20:39.425Z,75.50
2023-09-20T02:23:08.442Z,74.90
2023-09-20T02:25:36.256Z,75.20
2023-09-20T02:28:03.468Z,74.60
2023-09-20T02:30:33.001Z,74.40
2023-09-20T02:33:01.115Z,73.20
2023-09-20T02:35:30.900Z,72.60
2023-09-20T02:38:00.090Z,72.40
2023-09-20T02:40:30.349Z,73.90
2023-09-20T02:43:02.007Z,75.60
2023-09-20T02:45:30.466Z,75.60
2023-09-20T02:48:04.249Z,76.30
2023-09-20T02:50:31.238Z,76.10
2023-09-20T02:52:58.103Z,75.50
2023-09-20T02:55:25.640Z,75.50
2023-09-20T02:57:56.158Z,74.50
2023-09-20T03:00:29.222Z,74.30
2023-09-20T03:02:58.807Z,74.20
2023-09-20T03:05:28.149Z,74.70
2023-09-20T03:07:56.603Z,74.70
2023-09-20T03:10:24.388Z,75.20
2023-09-20T03:12:52.930Z,75.90
2023-09-20T03:15:23.155Z,76.30
2023-09-20T03:17:52.348Z,76.20
2023-09-20T03:20:24.050Z,76.00
2023-09-20T03:22:56.713Z,75.30
2023-09-20T03:25:24.267Z,74.00
2023-09-20T03:27:54.737Z,74.20
2023-09-20T03:30:22.055Z,74.30
2023-09-20T03:32:50.994Z,74.60
2023-09-20T03:35:21.227Z,75.60
2023-09-20T03:37:48.561Z,76.50
2023-09-20T03:40:20.379Z,77.40
2023-09-20T03:42:49.346Z,77.10
2023-09-20T03:45:17.874Z,76.70
2023-09-20T03:47:46.928Z,76.90
2023-09-20T03:50:14.437Z,76.90
2023-09-20T03:52:41.388Z,76.20
2023-09-20T03:55:08.727Z,75.10
2023-09-20T03:57:36.472Z,75.80
2023-09-20T04:00:10.866Z,75.90
2023-09-20T04:02:42.404Z,76.10
2023-09-20T04:05:23.840Z,75.90
2023-09-20T04:07:57.674Z,76.20
2023-09-20T04:10:24.524Z,76.00
2023-09-20T04:12:51.305Z,75.90
2023-09-20T04:15:18.361Z,75.40
2023-09-20T04:17:45.558Z,75.10
2023-09-20T04:20:13.575Z,74.60
2023-09-20T04:22:42.270Z,74.50
2023-09-20T04:25:12.061Z,74.60
2023-09-20T04:27:42.429Z,73.80
2023-09-20T04:30:09.794Z,74.10
2023-09-20T04:32:41.712Z,74.20
2023-09-20T04:35:13.934Z,74.00
2023-09-20T04:37:40.944Z,74.20
2023-09-20T04:40:10.733Z,75.00
2023-09-20T04:42:39.645Z,75.20
2023-09-20T04:45:13.863Z,74.90
2023-09-20T04:47:41.135Z,74.40
2023-09-20T04:50:08.335Z,74.50
2023-09-20T04:52:35.357Z,75.30
2023-09-20T04:55:02.520Z,75.50
2023-09-20T04:57:29.935Z,75.40
2023-09-20T04:59:56.836Z,74.90
2023-09-20T05:02:24.305Z,75.50
2023-09-20T05:04:51.625Z,75.70
2023-09-20T05:07:19.778Z,75.30
2023-09-20T05:09:50.521Z,75.40
2023-09-20T05:12:17.623Z,74.90
2023-09-20T05:14:44.581Z,74.60
2023-09-20T05:17:11.676Z,75.00
2023-09-20T05:19:40.324Z,75.40
2023-09-20T05:22:07.792Z,74.60
2023-09-20T05:24:34.692Z,75.20
2023-09-20T05:27:02.430Z,75.90
2023-09-20T05:29:29.224Z,75.80
2023-09-20T05:31:57.081Z,75.30
2023-09-20T05:34:23.827Z,75.60
2023-09-20T05:36:53.335Z,75.50
2023-09-20T05:39:20.345Z,75.40
2023-09-20T05:41:47.080Z,75.10
2023-09-20T05:44:14.457Z,75.50
2023-09-20T05:46:41.489Z,75.10
2023-09-20T05:49:08.279Z,75.50
2023-09-20T05:51:35.021Z,75.50
2023-09-20T05:54:01.740Z,74.80
2023-09-20T05:56:28.610Z,74.30
2023-09-20T05:58:55.366Z,75.00
2023-09-20T06:01:25.146Z,75.10
2023-09-20T06:03:57.495Z,75.00
2023-09-20T06:06:24.694Z,75.20
2023-09-20T06:08:51.509Z,75.30
2023-09-20T06:11:20.214Z,75.30
2023-09-20T06:13:47.521Z,75.40
2023-09-20T06:16:14.493Z,75.50
2023-09-20T06:18:58.726Z,75.10
2023-09-20T06:21:32.282Z,75.00
2023-09-20T06:23:59.141Z,75.30
2023-09-20T06:26:27.055Z,75.40
2023-09-20T06:28:53.986Z,75.60
2023-09-20T06:31:20.803Z,75.70
2023-09-20T06:33:48.204Z,75.90
2023-09-20T06:36:19.304Z,75.70
2023-09-20T06:38:48.344Z,75.60
2023-09-20T06:41:16.434Z,75.20
2023-09-20T06:43:43.455Z,74.80
2023-09-20T06:46:11.344Z,74.10
2023-09-20T06:48:39.495Z,73.70
2023-09-20T06:51:06.580Z,73.70
2023-09-20T06:53:33.450Z,73.50
2023-09-20T06:56:01.234Z,73.70
2023-09-20T06:58:29.441Z,73.10
2023-09-20T07:00:56.401Z,73.00
2023-09-20T07:03:23.675Z,73.30
2023-09-20T07:05:51.257Z,73.20
2023-09-20T07:08:19.439Z,73.00
2023-09-20T07:10:48.742Z,72.90
2023-09-20T07:13:18.716Z,72.50
2023-09-20T07:15:45.528Z,72.40
2023-09-20T07:18:15.371Z,72.60
2023-09-20T07:20:44.262Z,72.70
2023-09-20T07:23:13.678Z,72.60
2023-09-20T07:25:40.705Z,72.60
2023-09-20T07:28:08.123Z,72.40
2023-09-20T07:30:41.616Z,71.50
2023-09-20T07:33:13.539Z,71.30
2023-09-20T07:35:48.300Z,72.10
2023-09-20T07:38:21.805Z,71.70
2023-09-20T07:40:51.749Z,71.60
2023-09-20T07:43:27.450Z,71.60
2023-09-20T07:45:56.775Z,71.00
2023-09-20T07:48:24.967Z,70.40
2023-09-20T07:50:51.819Z,70.70
2023-09-20T07:53:19.216Z,69.40
2023-09-20T07:55:56.714Z,69.80
2023-09-20T07:58:23.377Z,70.50
2023-09-20T08:00:53.197Z,69.30
2023-09-20T08:03:21.992Z,69.30
2023-09-20T08:05:54.115Z,70.00
2023-09-20T08:08:21.561Z,69.70
2023-09-20T08:11:02.395Z,68.90
2023-09-20T08:13:33.747Z,68.90
2023-09-20T08:16:03.904Z,69.20
2023-09-20T08:18:49.858Z,68.50
2023-09-20T08:21:16.708Z,68.00
2023-09-20T08:24:02.268Z,67.30
2023-09-20T08:26:47.732Z,66.70
2023-09-20T08:29:33.179Z,67.10
2023-09-20T08:32:18.355Z,67.10
2023-09-20T08:35:03.571Z,66.70
2023-09-20T08:37:48.980Z,66.80
2023-09-20T08:40:34.711Z,66.50
2023-09-20T08:43:20.140Z,65.50
2023-09-20T08:46:05.984Z,64.30
2023-09-20T08:48:52.877Z,65.00
2023-09-20T08:51:41.820Z,64.80
2023-09-20T08:54:27.479Z,64.10
2023-09-20T08:57:14.540Z,63.40
2023-09-20T08:59:51.389Z,63.60
2023-09-20T09:02:18.411Z,63.60
2023-09-20T09:04:45.873Z,62.90
2023-09-20T09:07:13.239Z,62.90
2023-09-20T09:09:40.241Z,62.70
2023-09-20T09:12:06.986Z,62.80
2023-09-20T09:14:36.828Z,63.50
2023-09-20T09:17:04.360Z,63.00
2023-09-20T09:19:31.162Z,62.20
2023-09-20T09:21:58.156Z,62.00
2023-09-20T09:24:24.817Z,62.30
2023-09-20T09:27:04.359Z,63.10
2023-09-20T09:29:31.326Z,63.80
2023-09-20T09:31:58.095Z,62.90
2023-09-20T09:34:24.834Z,62.50
2023-09-20T09:36:51.581Z,63.00
2023-09-20T09:39:33.797Z,63.40
2023-09-20T09:42:02.042Z,62.10
2023-09-20T09:44:29.019Z,64.00
2023-09-20T09:46:55.968Z,63.30
2023-09-20T09:49:23.555Z,62.50
2023-09-20T09:51:53.677Z,62.00
2023-09-20T09:54:23.884Z,61.50
2023-09-20T09:56:50.610Z,60.70
2023-09-20T09:59:17.392Z,61.20
2023-09-20T10:01:45.769Z,62.90
2023-09-20T10:04:13.258Z,61.20
2023-09-20T10:06:45.704Z,59.30
2023-09-20T10:09:13.612Z,58.80
2023-09-20T10:11:42.546Z,59.20
2023-09-20T10:14:10.436Z,59.10
2023-09-20T10:16:39.438Z,58.20
2023-09-20T10:19:11.993Z,58.10
2023-09-20T10:21:40.914Z,58.20
2023-09-20T10:24:09.271Z,58.60
2023-09-20T10:26:38.420Z,60.40
2023-09-20T10:29:27.727Z,59.40
2023-09-20T10:31:55.326Z,58.60
2023-09-20T10:34:22.633Z,58.80
2023-09-20T10:36:52.525Z,58.70
2023-09-20T10:39:19.194Z,59.10
2023-09-20T10:41:46.915Z,58.70
2023-09-20T10:44:29.907Z,58.90
2023-09-20T10:46:57.065Z,58.40
2023-09-20T10:49:43.150Z,58.80
2023-09-20T10:52:10.283Z,58.80
2023-09-20T10:54:40.883Z,57.40
2023-09-20T10:57:11.760Z,57.10
2023-09-20T10:59:40.085Z,58.40
2023-09-20T11:02:14.715Z,57.10
2023-09-20T11:04:41.542Z,56.70
2023-09-20T11:07:08.487Z,57.90
2023-09-20T11:09:35.576Z,57.90
2023-09-20T11:12:07.953Z,56.30
2023-09-20T11:14:41.521Z,56.70
2023-09-20T11:17:09.245Z,57.60
2023-09-20T11:19:36.390Z,57.30
2023-09-20T11:22:03.970Z,56.30
2023-09-20T11:24:30.753Z,56.20
2023-09-20T11:26:58.102Z,56.70
2023-09-20T11:29:25.720Z,56.60
2023-09-20T11:31:56.348Z,55.40
2023-09-20T11:34:23.260Z,56.30
2023-09-20T11:36:54.780Z,55.10
2023-09-20T11:39:30.809Z,53.90
2023-09-20T11:42:05.589Z,55.60
2023-09-20T11:44:38.415Z,55.50
2023-09-20T11:47:06.874Z,55.30
2023-09-20T11:49:33.863Z,53.70
2023-09-20T11:52:01.874Z,53.00
2023-09-20T11:54:34.909Z,54.10
2023-09-20T11:57:03.994Z,54.40
2023-09-20T11:59:33.265Z,54.10
2023-09-20T12:02:00.610Z,52.90
2023-09-20T12:04:27.337Z,51.90
2023-09-20T12:06:54.345Z,53.40
2023-09-20T12:09:22.846Z,51.20
2023-09-20T12:11:49.690Z,52.50
2023-09-20T12:14:16.711Z,52.60
2023-09-20T12:16:48.606Z,52.50
2023-09-20T12:19:16.801Z,51.90
2023-09-20T12:21:45.674Z,51.90
2023-09-20T12:24:15.130Z,51.30
2023-09-20T12:26:42.377Z,51.20
2023-09-20T12:29:09.128Z,51.10
2023-09-20T12:31:35.996Z,51.80
2023-09-20T12:34:02.752Z,49.30
2023-09-20T12:36:30.073Z,49.80
2023-09-20T12:38:57.299Z,50.80
2023-09-20T12:41:25.608Z,50.70
2023-09-20T12:43:52.488Z,51.10
2023-09-20T12:46:19.701Z,49.80
2023-09-20T12:48:46.925Z,49.40
2023-09-20T12:51:13.879Z,49.90
2023-09-20T12:53:41.163Z,49.50
2023-09-20T12:56:10.184Z,50.00
2023-09-20T12:58:36.820Z,48.60
2023-09-20T13:01:04.837Z,47.80
2023-09-20T13:03:32.732Z,48.40
2023-09-20T13:05:59.609Z,48.00
2023-09-20T13:08:26.452Z,47.10
2023-09-20T13:10:55.415Z,47.80
2023-09-20T13:13:25.136Z,47.10
2023-09-20T13:15:53.695Z,48.10
2023-09-20T13:18:20.621Z,48.00
2023-09-20T13:20:47.808Z,46.60
2023-09-20T13:23:14.990Z,46.90
2023-09-20T13:25:43.691Z,48.10
2023-09-20T13:28:10.471Z,47.90
2023-09-20T13:30:38.772Z,48.40
2023-09-20T13:33:06.904Z,48.70
2023-09-20T13:35:35.871Z,49.30
2023-09-20T13:38:04.323Z,48.90
2023-09-20T13:40:31.787Z,48.60
2023-09-20T13:42:58.986Z,48.20
2023-09-20T13:45:27.848Z,49.20
2023-09-20T13:47:55.140Z,49.60
2023-09-20T13:50:22.702Z,49.60
2023-09-20T13:52:49.678Z,49.90
2023-09-20T13:55:21.177Z,49.40
2023-09-20T13:57:55.529Z,49.40
2023-09-20T14:00:22.213Z,48.90
2023-09-20T14:02:49.123Z,48.70
2023-09-20T14:05:16.732Z,48.00
2023-09-20T14:07:45.921Z,47.90
2023-09-20T14:10:17.155Z,48.00
2023-09-20T14:12:44.554Z,50.20
2023-09-20T14:15:12.313Z,50.10
2023-09-20T14:17:41.233Z,50.20
2023-09-20T14:20:10.600Z,48.90
2023-09-20T14:22:38.183Z,48.00
2023-09-20T14:25:06.428Z,47.10
2023-09-20T14:27:35.038Z,45.50
2023-09-20T14:30:02.120Z,45.00
2023-09-20T14:32:29.997Z,44.00
2023-09-20T14:34:59.028Z,43.20
2023-09-20T14:37:27.719Z,41.40
2023-09-20T14:39:57.457Z,40.80
2023-09-20T14:42:26.335Z,39.40
2023-09-20T14:44:54.199Z,38.30
2023-09-20T14:47:21.829Z,36.40
2023-09-20T14:49:48.597Z,35.60
2023-09-20T14:52:15.397Z,34.20
2023-09-20T14:54:43.180Z,32.70
2023-09-20T14:57:09.852Z,30.60
2023-09-20T14:59:36.547Z,30.40
2023-09-20T15:02:05.721Z,29.90
2023-09-20T15:04:32.645Z,30.30
2023-09-20T15:06:59.370Z,30.30
2023-09-20T15:09:26.073Z,28.70
2023-09-20T15:11:53.847Z,27.60
2023-09-20T15:14:20.649Z,27.20
2023-09-20T15:16:47.427Z,26.90
2023-09-20T15:19:14.238Z,26.60
2023-09-20T15:21:41.226Z,26.80
2023-09-20T15:24:08.050Z,27.10
2023-09-20T15:26:36.827Z,27.10
2023-09-20T15:29:03.829Z,27.20
2023-09-20T15:31:31.745Z,26.40
2023-09-20T15:33:58.884Z,26.90
2023-09-20T15:36:25.676Z,26.80
2023-09-20T15:38:54.384Z,27.40
2023-09-20T15:41:23.023Z,27.10
2023-09-20T15:43:51.390Z,27.20
2023-09-20T15:46:18.464Z,27.30
2023-09-20T15:48:48.002Z,27.80
2023-09-20T15:51:15.467Z,27.60
2023-09-20T15:53:42.436Z,27.40
2023-09-20T15:56:09.404Z,27.90
2023-09-20T15:58:36.173Z,27.60
2023-09-20T16:01:03.181Z,27.40
2023-09-20T16:03:33.301Z,27.70
2023-09-20T16:06:00.514Z,27.90
2023-09-20T16:08:29.282Z,28.10
2023-09-20T16:10:56.194Z,27.70
2023-09-20T16:13:23.517Z,28.20
2023-09-20T16:15:53.721Z,28.10
2023-09-20T16:18:21.244Z,29.20
2023-09-20T16:20:48.494Z,29.90
2023-09-20T16:23:15.410Z,30.60
2023-09-20T16:25:42.256Z,31.70
2023-09-20T16:28:09.133Z,31.60
2023-09-20T16:30:38.530Z,31.70
2023-09-20T16:33:08.938Z,31.80
2023-09-20T16:35:35.919Z,32.10
2023-09-20T16:38:07.539Z,32.20
2023-09-20T16:40:35.660Z,32.20
2023-09-20T16:43:02.397Z,32.10
2023-09-20T16:45:29.607Z,32.30
2023-09-20T16:47:56.536Z,32.60
2023-09-20T16:50:24.548Z,33.60
2023-09-20T16:52:51.285Z,34.00
2023-09-20T16:55:19.092Z,34.50
2023-09-20T16:57:48.128Z,34.90
2023-09-20T17:00:16.250Z,36.00
2023-09-20T17:02:43.397Z,36.90
2023-09-20T17:05:14.667Z,38.00
2023-09-20T17:07:44.681Z,39.40
2023-09-20T17:10:14.372Z,41.60
2023-09-20T17:12:43.160Z,43.50
2023-09-20T17:15:10.183Z,45.10
2023-09-20T17:17:37.027Z,47.00
2023-09-20T17:20:04.222Z,48.40
2023-09-20T17:22:31.604Z,49.90
2023-09-20T17:24:58.330Z,50.80
2023-09-20T17:27:30.013Z,52.30
2023-09-20T17:29:58.666Z,52.90
2023-09-20T17:32:25.692Z,53.80
2023-09-20T17:34:53.721Z,55.00
2023-09-20T17:37:20.749Z,56.40
2023-09-20T17:39:47.728Z,57.10
2023-09-20T17:42:17.419Z,56.80
2023-09-20T17:44:45.300Z,57.70
2023-09-20T17:47:13.702Z,58.00
2023-09-20T17:49:40.628Z,58.80
2023-09-20T17:52:09.548Z,59.60
2023-09-20T17:54:36.376Z,60.00
2023-09-20T17:57:03.962Z,60.50
2023-09-20T17:59:30.719Z,60.30
2023-09-20T18:01:58.738Z,60.60
2023-09-20T18:04:25.747Z,61.00
2023-09-20T18:06:52.666Z,60.80
2023-09-20T18:09:19.412Z,61.60
2023-09-20T18:25:02.372Z,64.30
2023-09-20T18:27:30.354Z,65.10
2023-09-20T18:29:57.983Z,64.50
2023-09-20T18:32:25.490Z,64.50
2023-09-20T18:34:52.490Z,64.90
2023-09-20T18:37:20.843Z,65.20
2023-09-20T18:39:49.681Z,64.80
2023-09-20T18:42:20.546Z,64.80
2023-09-20T18:44:48.065Z,65.70
2023-09-20T18:47:15.287Z,66.10
2023-09-20T18:49:42.053Z,66.60
2023-09-20T18:52:14.820Z,66.40
2023-09-20T18:54:41.712Z,65.80
2023-09-20T18:57:08.432Z,65.30
2023-09-20T18:59:43.492Z,65.70
2023-09-20T19:02:14.345Z,65.90
2023-09-20T19:04:42.335Z,66.20
2023-09-20T19:07:12.761Z,66.60
2023-09-20T19:09:39.643Z,67.20
2023-09-20T19:12:07.942Z,67.20
2023-09-20T19:14:34.838Z,67.00
2023-09-20T19:17:01.667Z,66.10
2023-09-20T19:19:28.411Z,67.10
2023-09-20T19:21:55.536Z,67.80
2023-09-20T19:24:25.036Z,67.90
2023-09-20T19:26:52.187Z,68.70
2023-09-20T19:29:24.336Z,69.10
2023-09-20T19:31:53.912Z,68.20
2023-09-20T19:34:21.751Z,68.80
2023-09-20T19:36:49.668Z,68.40
2023-09-20T19:39:16.549Z,68.90
2023-09-20T19:41:43.602Z,68.60
2023-09-20T19:44:12.358Z,67.80
2023-09-20T19:46:39.336Z,67.60
2023-09-20T19:49:06.472Z,67.90
2023-09-20T19:51:33.432Z,68.60
2023-09-20T19:54:01.354Z,68.30
2023-09-20T19:56:35.390Z,68.00
2023-09-20T19:59:02.472Z,68.20
2023-09-20T20:01:31.845Z,69.10
2023-09-20T20:03:59.071Z,69.90
2023-09-20T20:06:26.596Z,69.90
2023-09-20T20:08:56.080Z,70.00
2023-09-20T20:11:24.845Z,69.90
2023-09-20T20:13:53.799Z,70.20
2023-09-20T20:16:20.695Z,70.80
2023-09-20T20:18:50.378Z,70.80
2023-09-20T20:21:18.477Z,71.30
2023-09-20T20:23:46.727Z,70.90
2023-09-20T20:26:14.714Z,71.00
2023-09-20T20:28:42.352Z,71.20
2023-09-20T20:31:11.078Z,71.10
2023-09-20T20:33:38.443Z,69.60
2023-09-20T20:36:08.802Z,69.60
2023-09-20T20:38:36.611Z,69.70
2023-09-20T20:41:06.567Z,69.70
2023-09-20T20:43:33.673Z,70.70
2023-09-20T20:46:00.831Z,71.10
2023-09-20T20:48:27.849Z,71.40
2023-09-20T20:50:54.796Z,72.10
2023-09-20T20:53:21.696Z,72.00
2023-09-20T20:55:56.363Z,71.90
2023-09-20T20:58:25.139Z,71.40
2023-09-20T21:00:57.273Z,71.00
2023-09-20T21:03:24.316Z,71.10
2023-09-20T21:05:51.788Z,71.10
2023-09-20T21:08:19.060Z,71.50
2023-09-20T21:10:46.017Z,71.50
2023-09-20T21:13:13.534Z,71.00
2023-09-20T21:15:46.006Z,70.80
2023-09-20T21:18:14.652Z,70.10
2023-09-20T21:20:41.952Z,71.20
2023-09-20T21:23:13.087Z,71.50
2023-09-20T21:25:40.457Z,71.90
2023-09-20T21:28:07.218Z,71.90
2023-09-20T21:30:35.188Z,71.70
2023-09-20T21:33:05.013Z,71.90
2023-09-20T21:35:33.409Z,72.60
2023-09-20T21:38:00.509Z,72.20
2023-09-20T21:40:29.034Z,72.00
2023-09-20T21:42:58.853Z,72.20
2023-09-20T21:45:27.437Z,71.60
2023-09-20T21:47:55.177Z,73.10
2023-09-20T21:50:24.806Z,73.70
2023-09-20T21:52:56.093Z,74.00
2023-09-20T21:55:28.059Z,74.10
2023-09-20T21:57:56.272Z,73.90
2023-09-20T22:00:29.163Z,73.30
2023-09-20T22:03:02.230Z,72.50
2023-09-20T22:05:29.752Z,72.90
2023-09-20T22:08:18.496Z,73.40
2023-09-20T22:10:51.499Z,73.80
2023-09-20T22:13:18.593Z,74.20
2023-09-20T22:15:46.276Z,74.80
2023-09-20T22:18:21.337Z,74.70
2023-09-20T22:20:52.920Z,74.40
2023-09-20T22:23:20.663Z,74.60
2023-09-20T22:25:49.097Z,74.30
2023-09-20T22:28:16.785Z,74.00
2023-09-20T22:30:43.519Z,74.40
2023-09-20T22:33:10.995Z,74.30
2023-09-20T22:35:40.033Z,74.00
2023-09-20T22:38:06.754Z,74.20
2023-09-20T22:40:33.589Z,73.90
2023-09-20T22:43:01.497Z,73.30
2023-09-20T22:45:28.444Z,72.90
2023-09-20T22:47:59.124Z,73.70
2023-09-20T22:50:29.866Z,74.10
2023-09-20T22:53:06.759Z,74.30
2023-09-20T22:55:40.828Z,73.90
2023-09-20T22:58:18.728Z,73.90
2023-09-20T23:00:47.507Z,74.10
2023-09-20T23:03:18.475Z,74.50
2023-09-20T23:05:48.325Z,74.90
2023-09-20T23:08:19.287Z,75.10
2023-09-20T23:10:46.605Z,74.40
2023-09-20T23:13:20.238Z,74.40
2023-09-20T23:15:52.986Z,75.10
2023-09-20T23:18:23.746Z,75.30
2023-09-20T23:20:55.452Z,75.00
2023-09-20T23:23:25.990Z,74.70
2023-09-20T23:25:54.564Z,74.30
2023-09-20T23:28:23.396Z,75.00
2023-09-20T23:30:54.109Z,74.60
2023-09-20T23:33:28.056Z,74.50
2023-09-20T23:35:57.946Z,74.80
2023-09-20T23:38:30.120Z,75.00
2023-09-20T23:41:21.098Z,75.50
2023-09-20T23:43:51.569Z,75.30
2023-09-20T23:46:22.903Z,75.40
2023-09-20T23:48:50.994Z,75.20
2023-09-20T23:51:18.156Z,75.50
2023-09-20T23:53:45.121Z,76.20
2023-09-20T23:56:17.964Z,76.40
2023-09-20T23:58:45.753Z,76.30
